KMLP - Mullan Pass
Updated: Sat, 20-Oct-2018 8:53am PDT
Clear
Clear
 Wind from varies
Wind: varies at 3 mph , 6 km/h
Temperature : 52°F , 11°C
Dew Point : 18°F , -8°C
Humidity : 26%
Barometer : 30.31 inHg , 1026.4 hPa
Clouds : Clear
Visibility : 10 miles , 16 km
2018/10/20 15:53 KMLP 201553Z AUTO VRB03KT 10SM CLR 11/M08 A3031 RMK AO2 SLP195 T01111083

 

KCOE - Coeur d Alene
Updated: Sat, 20-Oct-2018 8:56am PDT
Clear
Clear
 Wind from ENE
Wind: ENE at 6 mph , 9 km/h
Temperature : 45°F , 7°C
Wind Chill : 42°F , 6°C
Dew Point : 39°F , 4°C
Humidity : 81%
Barometer : 30.26 inHg , 1024.7 hPa
Clouds : Clear
Visibility : 10 miles , 16 km
2018/10/20 15:56 KCOE 201556Z AUTO 07005KT 10SM CLR 07/04 A3026 RMK AO2 SLP275 T00670039 PNO $

 

KLWS - Lewiston
Updated: Sat, 20-Oct-2018 8:56am PDT
Clear
Clear
 Wind from ENE
Wind: ENE at 3 mph , 6 km/h
Temperature : 46°F , 8°C
Dew Point : 36°F , 2°C
Humidity : 66%
Barometer : 30.26 inHg , 1024.7 hPa
Clouds : Clear
Visibility : 10 miles , 16 km
2018/10/20 15:56 KLWS 201556Z 07003KT 10SM CLR 08/02 A3026 RMK AO2 SLP253 T00780022

 

KGEG - Spokane Intl
Updated: Sat, 20-Oct-2018 8:53am PDT
Clear
Clear
 Wind from ENE
Wind: ENE at 9 mph , 15 km/h
Temperature : 43°F , 6°C
Wind Chill : 38°F , 3°C
Dew Point : 36°F , 2°C
Humidity : 76%
Barometer : 30.25 inHg , 1024.4 hPa
Clouds : Clear
Visibility : 10 miles , 16 km
2018/10/20 15:53 KGEG 201553Z 07008KT 10SM CLR 06/02 A3025 RMK AO2 SLP252 T00610022